createdAt,value
2023-04-11T00:00:53.580Z,26.32
2023-04-11T00:06:02.355Z,23.34
2023-04-11T00:11:11.105Z,32.13
2023-04-11T00:16:19.685Z,28.01
2023-04-11T00:21:28.823Z,33.52
2023-04-11T00:26:37.617Z,27.89
2023-04-11T00:31:47.074Z,26.14
2023-04-11T00:36:55.660Z,19.63
2023-04-11T00:42:04.601Z,21.34
2023-04-11T00:47:13.211Z,21.51
2023-04-11T00:52:21.769Z,21.67
2023-04-11T00:57:30.444Z,22.90
2023-04-11T01:02:39.700Z,21.27
2023-04-11T01:07:48.573Z,21.69
2023-04-11T01:12:57.419Z,21.54
2023-04-11T01:18:06.087Z,20.26
2023-04-11T01:23:15.122Z,25.19
2023-04-11T01:28:23.394Z,18.10
2023-04-11T01:33:32.086Z,18.72
2023-04-11T01:38:40.449Z,19.41
2023-04-11T01:43:49.633Z,16.77
2023-04-11T01:48:58.859Z,15.69
2023-04-11T01:54:07.784Z,19.98
2023-04-11T01:59:16.591Z,16.28
2023-04-11T02:04:25.648Z,13.65
2023-04-11T02:09:34.268Z,21.10
2023-04-11T02:14:43.502Z,14.53
2023-04-11T02:19:52.127Z,14.94
2023-04-11T02:25:00.916Z,23.50
2023-04-11T02:30:09.645Z,17.15
2023-04-11T02:35:18.858Z,17.79
2023-04-11T02:40:27.665Z,15.72
2023-04-11T02:45:36.463Z,17.37
2023-04-11T02:50:45.026Z,22.74
2023-04-11T02:55:54.386Z,20.41
2023-04-11T03:01:02.684Z,18.78
2023-04-11T03:06:11.737Z,17.61
2023-04-11T03:11:20.351Z,17.09
2023-04-11T03:16:29.476Z,18.95
2023-04-11T03:21:38.289Z,16.50
2023-04-11T03:26:47.214Z,18.37
2023-04-11T03:31:55.957Z,17.45
2023-04-11T03:37:05.016Z,17.79
2023-04-11T03:42:13.912Z,16.79
2023-04-11T03:47:23.057Z,13.05
2023-04-11T03:52:31.936Z,16.29
2023-04-11T03:57:41.363Z,14.12
2023-04-11T04:02:50.005Z,17.75
2023-04-11T04:07:58.682Z,16.19
2023-04-11T04:13:07.701Z,15.12
2023-04-11T04:18:16.535Z,13.95
2023-04-11T04:23:25.674Z,16.32
2023-04-11T04:28:34.914Z,16.39
2023-04-11T04:33:44.026Z,13.50
2023-04-11T04:38:52.939Z,13.69
2023-04-11T04:44:01.629Z,16.80
2023-04-11T04:49:10.688Z,19.66
2023-04-11T04:54:19.257Z,18.66
2023-04-11T04:59:28.614Z,27.07
2023-04-11T05:04:37.854Z,30.79
2023-04-11T05:09:46.834Z,29.66
2023-04-11T05:14:55.773Z,27.98
2023-04-11T05:20:05.542Z,26.17
2023-04-11T05:25:14.434Z,31.51
2023-04-11T05:30:23.453Z,33.51
2023-04-11T05:35:32.182Z,37.50
2023-04-11T05:40:42.288Z,34.19
2023-04-11T05:45:41.131Z,27.41
2023-04-11T05:50:50.193Z,35.54
2023-04-11T05:55:59.214Z,44.12
2023-04-11T06:01:08.714Z,40.41
2023-04-11T06:06:18.325Z,37.62
2023-04-11T06:11:27.730Z,32.57
2023-04-11T06:16:36.423Z,33.43
2023-04-11T06:21:45.631Z,29.26
2023-04-11T06:26:54.444Z,33.53
2023-04-11T06:32:03.849Z,18.57
2023-04-11T06:37:12.671Z,28.20
2023-04-11T06:42:22.282Z,15.88
2023-04-11T06:47:31.150Z,22.26
2023-04-11T06:52:40.344Z,15.66
2023-04-11T06:57:49.117Z,18.47
2023-04-11T07:02:58.338Z,15.69
2023-04-11T07:08:07.207Z,17.52
2023-04-11T07:13:16.676Z,16.57
2023-04-11T07:18:25.570Z,18.22
2023-04-11T07:23:34.773Z,14.05
2023-04-11T07:28:43.795Z,16.34
2023-04-11T07:33:53.549Z,15.33
2023-04-11T07:39:02.416Z,14.72
2023-04-11T07:44:11.605Z,13.78
2023-04-11T07:49:20.559Z,13.77
2023-04-11T08:04:48.493Z,12.24
2023-04-11T08:15:06.998Z,14.62
2023-04-11T08:20:16.600Z,14.03
2023-04-11T08:25:26.408Z,12.92
2023-04-11T08:30:35.253Z,11.97
2023-04-11T08:35:44.842Z,11.73
2023-04-11T08:40:53.433Z,11.56
2023-04-11T08:46:03.576Z,11.44
2023-04-11T08:51:12.225Z,11.97
2023-04-11T08:56:21.457Z,12.21
2023-04-11T09:01:30.240Z,10.92
2023-04-11T09:06:38.904Z,12.08
2023-04-11T09:11:47.784Z,13.51
2023-04-11T09:16:56.847Z,10.74
2023-04-11T09:22:05.707Z,9.37
2023-04-11T09:27:15.561Z,10.91
2023-04-11T09:32:24.322Z,8.74
2023-04-11T09:37:33.739Z,8.64
2023-04-11T09:42:42.036Z,9.15
2023-04-11T09:47:51.151Z,8.86
2023-04-11T09:52:59.999Z,8.46
2023-04-11T09:58:09.240Z,7.11
2023-04-11T10:03:18.302Z,7.99
2023-04-11T10:08:27.784Z,9.60
2023-04-11T10:13:36.176Z,9.06
2023-04-11T10:18:45.391Z,8.17
2023-04-11T10:23:55.209Z,10.27
2023-04-11T10:29:03.819Z,9.71
2023-04-11T10:34:12.505Z,9.23
2023-04-11T10:39:21.448Z,10.83
2023-04-11T10:44:30.148Z,9.30
2023-04-11T10:49:39.278Z,9.92
2023-04-11T10:54:47.780Z,8.34
2023-04-11T10:59:57.024Z,6.80
2023-04-11T11:05:05.809Z,7.19
2023-04-11T11:10:15.289Z,9.73
2023-04-11T11:15:23.663Z,8.29
2023-04-11T11:20:32.708Z,8.85
2023-04-11T11:25:41.610Z,10.07
2023-04-11T11:30:51.603Z,8.84
2023-04-11T11:35:58.710Z,9.73
2023-04-11T11:41:07.899Z,9.33
2023-04-11T11:46:16.553Z,9.88
2023-04-11T11:51:26.457Z,8.78
2023-04-11T11:56:35.534Z,8.86
2023-04-11T12:01:46.477Z,9.06
2023-04-11T12:06:45.098Z,11.21
2023-04-11T12:11:54.384Z,9.91
2023-04-11T12:17:03.550Z,11.62
2023-04-11T12:22:13.359Z,13.63
2023-04-11T12:27:22.206Z,12.93
2023-04-11T12:32:31.874Z,11.08
2023-04-11T12:37:40.749Z,9.48
2023-04-11T12:42:56.819Z,10.74
2023-04-11T12:47:59.098Z,10.65
2023-04-11T12:53:08.659Z,13.24
2023-04-11T12:58:17.378Z,9.96
2023-04-11T13:03:27.810Z,27.85
2023-04-11T13:08:26.354Z,13.00
2023-04-11T13:13:36.995Z,12.12
2023-04-11T13:18:35.315Z,12.17
2023-04-11T13:23:44.544Z,10.19
2023-04-11T13:28:53.067Z,11.41
2023-04-11T13:34:02.462Z,10.93
2023-04-11T13:39:11.117Z,10.60
2023-04-11T13:44:20.251Z,10.18
2023-04-11T13:49:28.852Z,16.61
2023-04-11T13:54:38.062Z,11.02
2023-04-11T13:59:47.124Z,9.24
2023-04-11T14:04:56.325Z,10.22
2023-04-11T14:10:05.716Z,9.38
2023-04-11T14:15:15.120Z,10.12
2023-04-11T14:20:24.283Z,11.27
2023-04-11T14:25:33.786Z,11.74
2023-04-11T14:30:42.379Z,9.84
2023-04-11T14:35:51.366Z,10.31
2023-04-11T14:40:59.920Z,12.42
2023-04-11T14:46:08.880Z,11.82
2023-04-11T14:51:17.716Z,10.06
2023-04-11T14:56:27.075Z,9.54
2023-04-11T15:01:35.858Z,12.64
2023-04-11T15:06:45.180Z,16.32
2023-04-11T15:11:54.014Z,14.14
2023-04-11T15:17:04.042Z,16.74
2023-04-11T15:22:02.827Z,15.41
2023-04-11T15:27:11.890Z,13.25
2023-04-11T15:32:20.330Z,11.14
2023-04-11T15:37:30.154Z,11.80
2023-04-11T15:42:38.828Z,12.36
2023-04-11T15:47:48.896Z,14.17
2023-04-11T15:52:47.540Z,14.21
2023-04-11T15:57:57.651Z,13.57
2023-04-11T16:03:00.060Z,13.49
2023-04-11T16:07:58.426Z,14.13
2023-04-11T16:13:07.338Z,14.73
2023-04-11T16:18:16.441Z,15.21
2023-04-11T16:23:24.970Z,19.66
2023-04-11T16:28:34.143Z,19.78
2023-04-11T16:33:42.758Z,17.92
2023-04-11T16:44:00.757Z,21.87
2023-04-11T16:49:10.770Z,18.35
2023-04-11T16:54:09.546Z,29.27
2023-04-11T16:59:18.861Z,17.70
2023-04-11T17:04:27.467Z,16.54
2023-04-11T17:09:36.788Z,15.07
2023-04-11T17:14:45.312Z,17.16
2023-04-11T17:19:54.104Z,15.50
2023-04-11T17:25:02.511Z,12.98
2023-04-11T17:30:11.607Z,12.78
2023-04-11T17:35:20.122Z,13.35
2023-04-11T17:40:29.094Z,12.96
2023-04-11T17:45:37.709Z,13.86
2023-04-11T17:50:46.715Z,12.30
2023-04-11T17:55:55.565Z,14.79
2023-04-11T18:01:05.249Z,15.35
2023-04-11T18:06:14.014Z,13.75
2023-04-11T18:11:23.688Z,14.74
2023-04-11T18:16:32.584Z,14.58
2023-04-11T18:21:41.394Z,13.97
2023-04-11T18:26:50.025Z,15.43
2023-04-11T18:31:59.564Z,14.49
2023-04-11T18:37:08.114Z,18.23
2023-04-11T18:42:17.041Z,15.92
2023-04-11T18:47:26.123Z,16.13
2023-04-11T18:52:35.386Z,14.86
2023-04-11T18:57:46.732Z,14.77
2023-04-11T19:02:52.787Z,15.56
2023-04-11T19:08:01.369Z,16.00
2023-04-11T19:13:10.723Z,16.73
2023-04-11T19:18:19.607Z,17.12
2023-04-11T19:23:28.923Z,18.46
2023-04-11T19:28:37.618Z,17.71
2023-04-11T19:33:46.778Z,17.43
2023-04-11T19:38:55.621Z,19.48
2023-04-11T19:44:05.169Z,19.91
2023-04-11T19:49:13.616Z,17.96
2023-04-11T19:54:22.539Z,17.32
2023-04-11T19:59:31.168Z,21.43
2023-04-11T20:04:39.915Z,19.69
2023-04-11T20:09:48.865Z,28.43
2023-04-11T20:14:58.197Z,19.71
2023-04-11T20:20:06.789Z,24.60
2023-04-11T20:25:15.637Z,24.19
2023-04-11T20:30:24.209Z,24.45
2023-04-11T20:35:33.106Z,23.35
2023-04-11T20:40:41.615Z,24.09
2023-04-11T20:45:51.100Z,20.65
2023-04-11T20:51:00.253Z,21.66
2023-04-11T20:56:09.309Z,24.08
2023-04-11T21:01:30.184Z,24.90
2023-04-11T21:06:18.653Z,23.34
2023-04-11T21:11:27.405Z,20.05
2023-04-11T21:16:36.597Z,19.98
2023-04-11T21:21:45.243Z,21.04
2023-04-11T21:26:54.120Z,19.13
2023-04-11T21:32:02.858Z,19.10
2023-04-11T21:37:11.897Z,18.42
2023-04-11T21:42:20.604Z,17.69
2023-04-11T21:47:29.822Z,18.35
2023-04-11T21:52:38.572Z,18.09
2023-04-11T21:57:47.579Z,18.82
2023-04-11T22:02:56.632Z,20.32
2023-04-11T22:08:05.311Z,19.05
2023-04-11T22:13:13.625Z,19.03
2023-04-11T22:18:22.226Z,17.88
2023-04-11T22:23:30.835Z,18.57
2023-04-11T22:28:39.844Z,16.89
2023-04-11T22:33:48.407Z,19.40
2023-04-11T22:38:57.572Z,20.66
2023-04-11T22:44:06.344Z,21.26
2023-04-11T22:49:15.013Z,21.04
2023-04-11T22:54:23.643Z,21.08
2023-04-11T22:59:32.946Z,21.61
2023-04-11T23:04:41.544Z,20.18
2023-04-11T23:09:50.478Z,19.96
2023-04-11T23:14:58.980Z,21.09
2023-04-11T23:20:08.052Z,22.71
2023-04-11T23:25:16.830Z,21.53
2023-04-11T23:30:26.000Z,22.40
2023-04-11T23:35:34.722Z,21.66
2023-04-11T23:40:43.803Z,23.03
2023-04-11T23:45:52.333Z,23.75
2023-04-11T23:51:01.285Z,25.89
2023-04-11T23:56:09.961Z,22.92
